Wall, SD (57790)

6:40 PM MDT on August 27, 2016 (GMT -0600)
NonFedAWOS | | Change Station

Elev 2812 ft 44.00 °N, 102.25 °W | Updated 45 minutes ago

Clear
Clear
81 °F
Feels Like 81 °F
N
5
Wind Variable Wind from East
Gusts 0.0 mph

Today
High -- | Low -- °F
--% Chance of Precip.
Yesterday
High -- | Low -- °F
Precip. -- in
Pressure 29.83 in
Visibility 10.0 miles
Clouds Clear
Heat Index 81 °F
Dew Point 57 °F
Humidity 45%
Rainfall in
Snow Depth Not available.
6:07 AM 7:32 PM
Waning Crescent, 20% visible
METAR KPHP 272355Z AUTO 13006KT 10SM CLR 28/14 A2988 RMK AO2 SLP102 T02780144 10283 20239 55005
Pressure 29.83 in
Visibility 10.0 miles
Clouds Clear
Heat Index 81 °F
Dew Point 57 °F
Humidity 45%
Rainfall in
Snow Depth Not available.
6:07 AM 7:32 PM
Waning Crescent, 20% visible
METAR KPHP 272355Z AUTO 13006KT 10SM CLR 28/14 A2988 RMK AO2 SLP102 T02780144 10283 20239 55005

10-Day Weather Forecast

Almanac

Astronomy

Aug. 27, 2016 Rise Set
Actual Time
Civil Twilight
Nautical Twilight
Astronomical Twilight
Moon
Length of Visible Light
Length of Day
Tomorrow will be .
, % of the Moon is Illuminated

Today's Extremes

State Highs State Lows

Community

WunderPhotos

Upload Photos

1,935,475 photos uploaded!

WunderBlog® & News

Nearby

Air Quality

  Air Quality AQ Index Pollutant
Not available.

Snow Depth

Station Depth Elevation

Earthquake Activity

City Distance Mag. Time & Date
Minimum magnitude displayed is 2.5.

Coastal Water Temperatures

Place Temperature

Stations

Nearby Weather Stations

Station Location Temp. Windchill Dew Point Humidity Wind Precip. Elev Updated Type
                   

Watches & Warnings

There are currently no watches in effect.